Airfield :







YOU CAN JOIN US ON...

 
LOGIN :

Register | Disclaimer

   EN    FR    IT 

 









Legend :    VFR   Marginal VFR   IFR   Intensive IFR   Very Intensive IFR
Visi :
Ceiling :
>= 8 km
>= 3000ft
5 to 8 km
1000 to 3000 ft
1500m to 5 km
500 to 1000 ft
800 to 1500m
200 to 500 ft
< 800m
< 200 ft
Symbols :   Thunderstorms  Fog  Heavy snow  Heavy precipitations  Wind > 20 kt






- Airport Elevation : 20 ft
- IATA code : BOS


KBOS - General Edward Lawrence Logan International

CURRENT METAR :
  • 180454Z 22009KT 10SM FEW250 21/16 A3014 RMK AO2 SLP206 T02110161 402720150

EXPIRED METARs :
  • 180354Z 21013G18KT 10SM FEW250 21/16 A3015 RMK AO2 SLP208 T02110156
  • 180254Z 22013KT 10SM FEW110 SCT250 22/16 A3015 RMK AO2 SLP209 T02170156 51005
  • 180154Z 21009G19KT 10SM FEW110 SCT250 22/16 A3015 RMK AO2 SLP208 T02220156
  • 180054Z 21011KT 10SM SCT100 SCT180 BKN250 22/16 A3014 RMK AO2 SLP207 T02220156

TAF KBOS
Valid from the 18 at 00:00 until the 19 at 06:00 UTC


172320Z 1800/1906 21012KT P6SM SCT140
FM181300 23009KT P6SM SCT250
KZBW FIR / North America



MET'MAP, your aeronautical weather chart ! - Copyright ORBIFLY December 2007 - Disclaimer

ORBIFLY MET'MAP TEAM :

Programming & Development : Alexandra Zaïnal
Original concept : Baudouin d'Aumeries
Technical & hardware support : Manuel Goepfert
Assistance : Marc-Olivier Méhu




SOURCES & CREDITS :

   NOAA